createdAt,value
2023-02-02T00:02:20.407Z,77.18
2023-02-02T00:04:48.468Z,77.32
2023-02-02T00:07:16.416Z,77.07
2023-02-02T00:09:46.351Z,77.00
2023-02-02T00:12:14.366Z,77.25
2023-02-02T00:14:42.237Z,76.89
2023-02-02T00:17:11.957Z,77.39
2023-02-02T00:19:39.896Z,77.27
2023-02-02T00:22:07.981Z,77.32
2023-02-02T00:24:35.830Z,77.42
2023-02-02T00:27:05.444Z,77.10
2023-02-02T00:29:33.626Z,77.29
2023-02-02T00:32:01.745Z,77.28
2023-02-02T00:34:29.687Z,77.14
2023-02-02T00:36:57.634Z,77.06
2023-02-02T00:39:27.195Z,77.35
2023-02-02T00:41:55.465Z,76.96
2023-02-02T00:44:42.477Z,77.02
2023-02-02T00:47:10.704Z,77.05
2023-02-02T00:49:39.184Z,77.21
2023-02-02T00:52:10.282Z,77.36
2023-02-02T00:54:38.237Z,77.10
2023-02-02T00:57:08.910Z,77.45
2023-02-02T00:59:40.966Z,77.12
2023-02-02T01:02:10.375Z,77.31
2023-02-02T01:04:38.829Z,77.46
2023-02-02T01:07:07.508Z,77.21
2023-02-02T01:09:35.476Z,77.15
2023-02-02T01:12:03.317Z,77.30
2023-02-02T01:14:31.132Z,76.95
2023-02-02T01:17:00.382Z,77.25
2023-02-02T01:19:28.334Z,77.20
2023-02-02T01:21:56.163Z,77.09
2023-02-02T01:24:24.145Z,77.03
2023-02-02T01:26:52.078Z,76.98
2023-02-02T01:29:20.189Z,77.06
2023-02-02T01:31:49.735Z,77.13
2023-02-02T01:34:21.245Z,77.07
2023-02-02T01:36:49.124Z,77.07
2023-02-02T01:39:17.456Z,76.89
2023-02-02T01:41:45.348Z,77.03
2023-02-02T01:44:50.441Z,76.88
2023-02-02T01:47:19.473Z,76.95
2023-02-02T01:49:49.242Z,76.84
2023-02-02T01:52:20.920Z,77.03
2023-02-02T01:54:52.140Z,77.13
2023-02-02T01:57:26.503Z,77.11
2023-02-02T01:59:58.016Z,77.29
2023-02-02T02:02:28.766Z,77.26
2023-02-02T02:04:58.445Z,76.92
2023-02-02T02:07:26.739Z,77.04
2023-02-02T02:09:54.900Z,77.01
2023-02-02T02:12:23.062Z,76.79
2023-02-02T02:15:10.399Z,76.99
2023-02-02T02:17:47.602Z,77.00
2023-02-02T02:21:07.758Z,76.86
2023-02-02T02:24:44.708Z,77.21
2023-02-02T02:27:49.364Z,77.03
2023-02-02T02:30:50.432Z,77.01
2023-02-02T02:33:27.329Z,77.10
2023-02-02T02:36:03.721Z,77.01
2023-02-02T02:38:39.179Z,77.10
2023-02-02T02:41:12.850Z,76.95
2023-02-02T02:43:44.835Z,77.02
2023-02-02T02:46:13.496Z,76.97
2023-02-02T02:48:45.658Z,77.19
2023-02-02T02:51:43.195Z,77.16
2023-02-02T02:54:12.612Z,77.27
2023-02-02T02:56:55.931Z,77.01
2023-02-02T02:59:35.767Z,76.92
2023-02-02T03:02:22.047Z,77.27
2023-02-02T03:05:02.593Z,77.22
2023-02-02T03:07:34.831Z,77.26
2023-02-02T03:10:06.451Z,77.20
2023-02-02T03:12:35.239Z,77.49
2023-02-02T03:15:06.991Z,77.23
2023-02-02T03:17:34.863Z,77.25
2023-02-02T03:20:04.293Z,77.33
2023-02-02T03:22:32.537Z,77.40
2023-02-02T03:25:00.513Z,77.48
2023-02-02T03:27:28.809Z,77.52
2023-02-02T03:29:56.939Z,77.58
2023-02-02T03:32:24.916Z,77.44
2023-02-02T03:34:52.953Z,77.73
2023-02-02T03:37:23.560Z,77.59
2023-02-02T03:39:53.629Z,77.67
2023-02-02T03:42:21.865Z,77.57
2023-02-02T03:44:49.836Z,77.67
2023-02-02T03:47:17.737Z,77.59
2023-02-02T03:49:45.785Z,77.41
2023-02-02T03:52:13.663Z,77.63
2023-02-02T03:54:43.002Z,77.49
2023-02-02T03:57:10.898Z,77.84
2023-02-02T03:59:39.036Z,77.47
2023-02-02T04:02:06.993Z,77.89
2023-02-02T04:04:35.020Z,77.54
2023-02-02T04:07:03.145Z,77.69
2023-02-02T04:09:31.147Z,77.64
2023-02-02T04:12:00.561Z,77.71
2023-02-02T04:14:28.345Z,77.64
2023-02-02T04:16:56.272Z,77.80
2023-02-02T04:19:24.153Z,77.67
2023-02-02T04:21:52.068Z,77.75
2023-02-02T04:24:19.818Z,77.73
2023-02-02T04:26:47.859Z,77.85
2023-02-02T04:29:17.684Z,78.13
2023-02-02T04:31:45.680Z,77.84
2023-02-02T04:34:13.648Z,77.83
2023-02-02T04:36:42.089Z,77.79
2023-02-02T04:39:12.294Z,77.91
2023-02-02T04:41:40.219Z,77.82
2023-02-02T04:44:15.538Z,78.02
2023-02-02T04:46:45.316Z,77.90
2023-02-02T04:49:13.502Z,77.91
2023-02-02T04:51:42.229Z,77.95
2023-02-02T04:54:10.195Z,78.08
2023-02-02T04:56:38.230Z,77.77
2023-02-02T04:59:06.270Z,77.83
2023-02-02T05:01:34.223Z,77.94
2023-02-02T05:04:03.523Z,78.11
2023-02-02T05:06:31.414Z,77.93
2023-02-02T05:08:59.979Z,77.98
2023-02-02T05:11:28.266Z,77.86
2023-02-02T05:13:56.758Z,77.98
2023-02-02T05:16:28.477Z,78.07
2023-02-02T05:18:59.502Z,77.95
2023-02-02T05:21:29.289Z,77.94
2023-02-02T05:23:57.245Z,78.05
2023-02-02T05:26:28.530Z,78.26
2023-02-02T05:28:57.430Z,78.13
2023-02-02T05:31:25.457Z,78.04
2023-02-02T05:33:53.743Z,78.15
2023-02-02T05:36:21.691Z,78.13
2023-02-02T05:38:51.192Z,78.12
2023-02-02T05:41:19.215Z,77.95
2023-02-02T05:43:47.380Z,78.22
2023-02-02T05:46:15.334Z,78.27
2023-02-02T05:48:43.427Z,78.21
2023-02-02T05:51:17.289Z,78.10
2023-02-02T05:53:46.063Z,78.14
2023-02-02T05:56:16.240Z,78.22
2023-02-02T05:58:47.392Z,78.28
2023-02-02T06:01:15.553Z,77.99
2023-02-02T06:03:43.715Z,78.20
2023-02-02T06:06:12.184Z,78.02
2023-02-02T06:08:40.170Z,78.10
2023-02-02T06:11:17.564Z,78.22
2023-02-02T06:13:48.751Z,78.14
2023-02-02T06:16:16.852Z,78.05
2023-02-02T06:18:47.232Z,78.37
2023-02-02T06:21:15.681Z,78.22
2023-02-02T06:23:45.865Z,77.99
2023-02-02T06:26:15.325Z,78.10
2023-02-02T06:28:43.702Z,78.18
2023-02-02T06:31:13.475Z,78.33
2023-02-02T06:33:41.430Z,77.96
2023-02-02T06:36:09.295Z,78.05
2023-02-02T06:38:37.292Z,78.34
2023-02-02T06:41:06.895Z,78.16
2023-02-02T06:43:38.690Z,78.06
2023-02-02T06:46:06.538Z,78.24
2023-02-02T06:48:34.320Z,78.14
2023-02-02T06:51:02.392Z,78.18
2023-02-02T06:53:30.414Z,78.32
2023-02-02T06:56:00.472Z,78.19
2023-02-02T06:58:29.136Z,78.30
2023-02-02T07:01:04.221Z,78.35
2023-02-02T07:03:32.266Z,78.23
2023-02-02T07:06:00.112Z,78.37
2023-02-02T07:08:28.049Z,78.35
2023-02-02T07:11:14.673Z,78.23
2023-02-02T07:13:43.594Z,78.12
2023-02-02T07:16:14.018Z,78.30
2023-02-02T07:18:44.009Z,77.91
2023-02-02T07:21:18.637Z,78.28
2023-02-02T07:23:46.870Z,78.48
2023-02-02T07:26:15.578Z,78.21
2023-02-02T07:28:43.590Z,78.26
2023-02-02T07:31:18.481Z,78.42
2023-02-02T07:33:47.678Z,78.46
2023-02-02T07:36:17.288Z,78.43
2023-02-02T07:38:46.146Z,78.55
2023-02-02T07:41:14.490Z,78.64
2023-02-02T07:43:42.729Z,78.21
2023-02-02T07:46:14.344Z,78.49
2023-02-02T07:48:43.743Z,78.65
2023-02-02T07:51:14.119Z,78.30
2023-02-02T07:53:44.958Z,78.30
2023-02-02T07:56:14.461Z,78.48
2023-02-02T07:58:43.413Z,78.58
2023-02-02T08:01:13.040Z,78.40
2023-02-02T08:03:44.047Z,78.55
2023-02-02T08:06:15.569Z,78.60
2023-02-02T08:08:43.715Z,78.46
2023-02-02T08:11:14.145Z,78.59
2023-02-02T08:13:43.313Z,78.50
2023-02-02T08:16:12.471Z,78.36
2023-02-02T08:18:40.596Z,78.46
2023-02-02T08:21:11.006Z,78.30
2023-02-02T08:23:40.334Z,78.50
2023-02-02T08:26:10.854Z,78.40
2023-02-02T08:28:39.274Z,78.48
2023-02-02T08:31:09.309Z,78.52
2023-02-02T08:33:38.568Z,78.52
2023-02-02T08:36:13.171Z,78.43
2023-02-02T08:38:41.620Z,78.42
2023-02-02T08:41:12.343Z,78.52
2023-02-02T08:43:40.596Z,78.30
2023-02-02T08:46:10.701Z,78.42
2023-02-02T08:48:38.839Z,78.38
2023-02-02T08:51:08.266Z,78.37
2023-02-02T08:53:37.602Z,78.40
2023-02-02T08:56:07.490Z,78.37
2023-02-02T08:58:35.796Z,78.42
2023-02-02T09:01:07.782Z,78.06
2023-02-02T09:03:38.989Z,78.27
2023-02-02T09:06:08.126Z,78.50
2023-02-02T09:08:37.854Z,78.58
2023-02-02T09:11:07.460Z,78.31
2023-02-02T09:13:35.586Z,78.60
2023-02-02T09:16:05.295Z,78.54
2023-02-02T09:18:33.580Z,78.62
2023-02-02T09:21:03.061Z,78.31
2023-02-02T09:23:31.714Z,78.56
2023-02-02T09:26:10.497Z,78.48
2023-02-02T09:28:39.405Z,78.78
2023-02-02T09:31:08.062Z,78.49
2023-02-02T09:33:36.824Z,78.57
2023-02-02T09:36:06.683Z,78.64
2023-02-02T09:38:34.844Z,78.44
2023-02-02T09:41:25.680Z,78.48
2023-02-02T09:44:03.433Z,78.77
2023-02-02T09:46:42.910Z,78.88
2023-02-02T09:49:13.675Z,78.79
2023-02-02T09:51:45.759Z,78.48
2023-02-02T09:54:19.719Z,78.90
2023-02-02T09:56:55.909Z,79.05
2023-02-02T09:59:28.245Z,78.70
2023-02-02T10:02:02.905Z,78.85
2023-02-02T10:04:36.015Z,78.56
2023-02-02T10:07:09.859Z,79.03
2023-02-02T10:09:43.616Z,78.63
2023-02-02T10:12:26.131Z,78.76
2023-02-02T10:14:59.318Z,79.06
2023-02-02T10:17:39.953Z,79.01
2023-02-02T10:20:22.269Z,78.72
2023-02-02T10:22:51.791Z,78.96
2023-02-02T10:25:23.738Z,79.08
2023-02-02T10:27:59.614Z,78.46
2023-02-02T10:30:38.810Z,78.71
2023-02-02T10:33:11.391Z,79.12
2023-02-02T10:35:45.335Z,79.17
2023-02-02T10:38:23.073Z,78.73
2023-02-02T10:41:00.713Z,79.11
2023-02-02T10:43:51.067Z,78.68
2023-02-02T10:46:24.904Z,79.07
2023-02-02T10:49:15.818Z,78.60
2023-02-02T10:51:50.337Z,79.20
2023-02-02T10:54:54.864Z,78.64
2023-02-02T10:57:35.325Z,78.93
2023-02-02T11:00:16.578Z,78.78
2023-02-02T11:02:44.957Z,79.12
2023-02-02T11:05:36.348Z,79.04
2023-02-02T11:08:12.194Z,79.00
2023-02-02T11:10:40.240Z,78.77
2023-02-02T11:13:13.570Z,78.75
2023-02-02T11:15:42.926Z,78.54
2023-02-02T11:18:29.455Z,79.09
2023-02-02T11:20:58.227Z,78.70
2023-02-02T11:23:28.610Z,79.15
2023-02-02T11:26:02.310Z,78.82
2023-02-02T11:28:35.367Z,78.71
2023-02-02T11:31:05.189Z,78.81
2023-02-02T11:33:35.146Z,78.77
2023-02-02T11:36:05.971Z,78.95
2023-02-02T11:38:34.311Z,79.10
2023-02-02T11:41:04.875Z,79.17
2023-02-02T11:43:36.467Z,78.97
2023-02-02T11:46:08.161Z,78.74
2023-02-02T11:48:38.725Z,78.91
2023-02-02T11:51:09.015Z,78.88
2023-02-02T11:53:43.884Z,79.22
2023-02-02T11:56:21.296Z,79.17
2023-02-02T11:58:50.785Z,79.57
2023-02-02T12:01:26.778Z,79.64
2023-02-02T12:03:56.266Z,79.22
2023-02-02T12:06:26.256Z,79.12
2023-02-02T12:08:58.145Z,79.15
2023-02-02T12:11:40.211Z,79.05
2023-02-02T12:14:25.462Z,78.99
2023-02-02T12:17:06.350Z,79.13
2023-02-02T12:19:51.378Z,78.89
2023-02-02T12:22:32.610Z,79.03
2023-02-02T12:25:13.371Z,78.64
2023-02-02T12:27:50.669Z,78.96
2023-02-02T12:30:28.855Z,78.96
2023-02-02T12:33:19.401Z,78.54
2023-02-02T12:36:08.638Z,78.61
2023-02-02T12:38:55.254Z,78.86
2023-02-02T12:41:39.524Z,78.42
2023-02-02T12:44:16.077Z,78.39
2023-02-02T12:46:58.403Z,78.46
2023-02-02T12:49:44.225Z,78.52
2023-02-02T12:52:31.021Z,78.22
2023-02-02T12:55:18.183Z,78.24
2023-02-02T12:57:57.863Z,78.36
2023-02-02T13:00:48.088Z,78.42
2023-02-02T13:03:28.010Z,78.04
2023-02-02T13:09:01.969Z,78.13
2023-02-02T13:11:38.401Z,78.13
2023-02-02T13:14:12.892Z,78.36
2023-02-02T13:16:48.426Z,78.05
2023-02-02T13:19:33.984Z,78.36
2023-02-02T13:22:05.922Z,78.08
2023-02-02T13:24:40.163Z,78.21
2023-02-02T13:27:14.662Z,78.16
2023-02-02T13:29:47.886Z,78.06
2023-02-02T13:32:22.400Z,78.04
2023-02-02T13:34:54.641Z,77.82
2023-02-02T13:37:30.374Z,77.85
2023-02-02T13:40:02.447Z,77.91
2023-02-02T13:42:42.128Z,77.95
2023-02-02T13:45:34.213Z,77.92
2023-02-02T13:48:15.615Z,77.80
2023-02-02T13:50:52.376Z,77.93
2023-02-02T13:53:43.063Z,77.89
2023-02-02T13:56:27.230Z,77.71
2023-02-02T13:59:14.691Z,77.53
2023-02-02T14:01:45.538Z,77.63
2023-02-02T14:04:23.233Z,77.84
2023-02-02T14:06:58.149Z,77.67
2023-02-02T14:09:30.229Z,77.73
2023-02-02T14:12:01.428Z,77.71
2023-02-02T14:14:35.232Z,77.85
2023-02-02T14:17:06.110Z,77.52
2023-02-02T14:19:57.616Z,77.42
2023-02-02T14:22:44.665Z,77.51
2023-02-02T14:26:05.293Z,77.60
2023-02-02T14:28:48.231Z,77.45
2023-02-02T14:31:42.339Z,77.47
2023-02-02T14:34:29.252Z,77.52
2023-02-02T14:37:30.792Z,77.21
2023-02-02T14:40:12.628Z,77.40
2023-02-02T14:43:14.629Z,77.45
2023-02-02T14:45:43.573Z,77.23
2023-02-02T14:48:16.647Z,77.18
2023-02-02T14:50:50.016Z,77.11
2023-02-02T14:53:26.633Z,77.04
2023-02-02T14:56:00.315Z,77.42
2023-02-02T14:58:34.287Z,77.08
2023-02-02T15:01:12.336Z,77.20
2023-02-02T15:03:53.126Z,76.91
2023-02-02T15:06:35.601Z,77.19
2023-02-02T15:09:29.269Z,76.93
2023-02-02T15:12:19.996Z,77.06
2023-02-02T15:14:55.225Z,76.96
2023-02-02T15:17:28.990Z,77.15
2023-02-02T15:20:06.559Z,77.19
2023-02-02T15:22:38.680Z,76.91
2023-02-02T15:25:18.452Z,76.93
2023-02-02T15:27:56.932Z,77.06
2023-02-02T15:30:29.950Z,76.86
2023-02-02T15:32:58.854Z,76.95
2023-02-02T15:35:32.427Z,77.04
2023-02-02T15:38:04.795Z,76.64
2023-02-02T15:40:33.332Z,76.83
2023-02-02T15:43:04.475Z,76.94
2023-02-02T15:45:43.667Z,76.59
2023-02-02T15:48:21.461Z,76.81
2023-02-02T15:50:55.865Z,76.97
2023-02-02T15:53:26.911Z,76.32
2023-02-02T15:55:56.727Z,76.58
2023-02-02T15:58:28.173Z,76.69
2023-02-02T16:01:15.537Z,76.72
2023-02-02T16:03:51.277Z,77.01
2023-02-02T16:06:20.085Z,76.44
2023-02-02T16:08:48.876Z,76.54
2023-02-02T16:11:18.989Z,76.67
2023-02-02T16:14:02.934Z,76.58
2023-02-02T16:16:33.937Z,76.71
2023-02-02T16:19:15.782Z,76.51
2023-02-02T16:21:48.983Z,76.65
2023-02-02T16:24:21.810Z,76.27
2023-02-02T16:26:52.273Z,76.49
2023-02-02T16:29:20.700Z,76.59
2023-02-02T16:31:51.667Z,76.84
2023-02-02T16:34:40.432Z,76.65
2023-02-02T16:37:14.339Z,76.20
2023-02-02T16:39:42.602Z,76.19
2023-02-02T16:42:11.733Z,76.58
2023-02-02T16:44:44.164Z,76.71
2023-02-02T16:47:38.933Z,76.48
2023-02-02T16:50:27.417Z,76.50
2023-02-02T16:52:58.488Z,76.33
2023-02-02T16:55:43.472Z,76.19
2023-02-02T16:58:20.861Z,76.60
2023-02-02T17:01:13.459Z,76.08
2023-02-02T17:03:49.789Z,76.05
2023-02-02T17:06:18.581Z,76.23
2023-02-02T17:08:46.643Z,76.91
2023-02-02T17:11:23.251Z,76.32
2023-02-02T17:13:52.010Z,76.29
2023-02-02T17:16:23.513Z,76.01
2023-02-02T17:18:53.182Z,76.65
2023-02-02T17:21:24.039Z,76.28
2023-02-02T17:23:54.316Z,76.28
2023-02-02T17:26:22.427Z,76.41
2023-02-02T17:28:51.916Z,76.52
2023-02-02T17:31:20.002Z,76.30
2023-02-02T17:33:47.855Z,76.35
2023-02-02T17:36:17.136Z,76.52
2023-02-02T17:38:44.998Z,76.66
2023-02-02T17:41:14.351Z,76.37
2023-02-02T17:43:43.799Z,75.71
2023-02-02T17:46:13.425Z,76.31
2023-02-02T17:48:41.497Z,76.22
2023-02-02T17:51:16.069Z,76.02
2023-02-02T17:53:46.173Z,76.26
2023-02-02T17:56:14.210Z,76.35
2023-02-02T17:58:42.319Z,76.45
2023-02-02T18:01:12.126Z,75.90
2023-02-02T18:03:43.049Z,76.79
2023-02-02T18:06:12.361Z,76.11
2023-02-02T18:08:40.928Z,76.58
2023-02-02T18:11:13.565Z,76.54
2023-02-02T18:13:44.484Z,76.36
2023-02-02T18:16:14.589Z,76.27
2023-02-02T18:18:42.654Z,76.39
2023-02-02T18:21:14.807Z,76.41
2023-02-02T18:23:42.990Z,76.14
2023-02-02T18:26:15.270Z,76.20
2023-02-02T18:28:43.482Z,75.97
2023-02-02T18:31:13.034Z,76.13
2023-02-02T18:33:41.874Z,76.09
2023-02-02T18:36:12.984Z,76.46
2023-02-02T18:38:42.518Z,76.01
2023-02-02T18:41:10.582Z,76.12
2023-02-02T18:43:40.140Z,76.07
2023-02-02T18:46:11.413Z,76.43
2023-02-02T18:48:40.593Z,76.58
2023-02-02T18:51:11.765Z,75.80
2023-02-02T18:53:39.716Z,76.29
2023-02-02T18:56:09.219Z,75.81
2023-02-02T18:58:39.516Z,75.93
2023-02-02T19:01:08.683Z,75.97
2023-02-02T19:03:36.961Z,76.47
2023-02-02T19:06:22.937Z,76.03
2023-02-02T19:08:50.944Z,76.09
2023-02-02T19:11:20.609Z,76.07
2023-02-02T19:13:50.540Z,76.12
2023-02-02T19:16:23.342Z,76.45
2023-02-02T19:18:51.669Z,76.31
2023-02-02T19:21:19.657Z,75.76
2023-02-02T19:23:47.692Z,76.33
2023-02-02T19:26:23.231Z,75.86
2023-02-02T19:28:53.441Z,76.06
2023-02-02T19:31:21.797Z,76.58
2023-02-02T19:33:52.227Z,76.43
2023-02-02T19:36:22.230Z,76.33
2023-02-02T19:38:53.469Z,76.04
2023-02-02T19:41:24.046Z,76.13
2023-02-02T19:43:58.623Z,75.90
2023-02-02T19:46:29.117Z,75.79
2023-02-02T19:49:12.522Z,75.88
2023-02-02T19:51:45.778Z,76.10
2023-02-02T19:54:26.028Z,75.94
2023-02-02T19:56:56.571Z,75.98
2023-02-02T19:59:31.067Z,76.19
2023-02-02T20:02:00.692Z,76.07
2023-02-02T20:04:29.206Z,76.29
2023-02-02T20:06:59.852Z,76.12
2023-02-02T20:09:34.716Z,76.18
2023-02-02T20:12:19.456Z,76.25
2023-02-02T20:14:49.470Z,76.21
2023-02-02T20:17:24.204Z,76.36
2023-02-02T20:19:52.026Z,75.90
2023-02-02T20:22:26.103Z,76.33
2023-02-02T20:24:54.822Z,76.04
2023-02-02T20:27:24.652Z,76.45
2023-02-02T20:29:57.740Z,76.25
2023-02-02T20:32:30.406Z,75.88
2023-02-02T20:35:00.443Z,76.45
2023-02-02T20:37:30.293Z,75.89
2023-02-02T20:40:00.257Z,76.39
2023-02-02T20:42:29.927Z,76.42
2023-02-02T20:44:59.163Z,75.90
2023-02-02T20:47:27.131Z,76.02
2023-02-02T20:49:57.421Z,76.09
2023-02-02T20:52:31.022Z,75.86
2023-02-02T20:55:00.712Z,75.77
2023-02-02T20:57:28.632Z,76.26
2023-02-02T21:00:00.429Z,75.82
2023-02-02T21:02:28.798Z,75.64
2023-02-02T21:04:56.866Z,75.89
2023-02-02T21:07:25.964Z,75.89
2023-02-02T21:09:54.511Z,75.66
2023-02-02T21:12:25.501Z,75.66
2023-02-02T21:14:54.067Z,76.08
2023-02-02T21:17:23.800Z,75.68
2023-02-02T21:19:52.021Z,76.03
2023-02-02T21:22:19.972Z,75.83
2023-02-02T21:24:47.903Z,76.28
2023-02-02T21:27:16.031Z,76.06
2023-02-02T21:29:44.090Z,76.05
2023-02-02T21:32:12.405Z,76.37
2023-02-02T21:34:41.887Z,76.21
2023-02-02T21:37:15.129Z,75.51
2023-02-02T21:39:48.534Z,76.07
2023-02-02T21:42:18.602Z,76.15
2023-02-02T21:44:52.482Z,75.91
2023-02-02T21:47:33.752Z,75.97
2023-02-02T21:50:15.407Z,75.97
2023-02-02T21:52:43.739Z,75.85
2023-02-02T21:55:32.388Z,75.75
2023-02-02T21:58:02.265Z,76.39
2023-02-02T22:00:34.571Z,76.21
2023-02-02T22:03:03.097Z,76.12
2023-02-02T22:05:38.195Z,76.34
2023-02-02T22:08:18.986Z,75.72
2023-02-02T22:10:47.333Z,75.46
2023-02-02T22:13:18.080Z,75.99
2023-02-02T22:15:47.621Z,76.13
2023-02-02T22:18:18.510Z,76.19
2023-02-02T22:20:50.792Z,76.30
2023-02-02T22:23:20.492Z,76.18
2023-02-02T22:25:50.547Z,76.04
2023-02-02T22:28:22.451Z,76.26
2023-02-02T22:30:52.104Z,76.07
2023-02-02T22:33:20.395Z,75.73
2023-02-02T22:35:50.031Z,75.96
2023-02-02T22:38:20.422Z,76.11
2023-02-02T22:40:49.613Z,76.00
2023-02-02T22:43:18.882Z,75.72
2023-02-02T22:45:47.454Z,75.53
2023-02-02T22:48:16.614Z,75.88
2023-02-02T22:50:44.709Z,76.24
2023-02-02T22:53:15.599Z,75.97
2023-02-02T22:55:44.116Z,76.01
2023-02-02T22:58:12.290Z,75.65
2023-02-02T23:00:40.234Z,76.05
2023-02-02T23:03:08.276Z,76.04
2023-02-02T23:05:36.824Z,76.08
2023-02-02T23:08:05.091Z,75.95
2023-02-02T23:10:35.945Z,76.09
2023-02-02T23:13:04.825Z,75.75
2023-02-02T23:15:33.267Z,76.13
2023-02-02T23:18:01.794Z,76.01
2023-02-02T23:20:30.022Z,75.89
2023-02-02T23:22:58.052Z,75.76
2023-02-02T23:25:26.726Z,76.22
2023-02-02T23:27:56.197Z,75.87
2023-02-02T23:30:24.920Z,75.92
2023-02-02T23:32:53.083Z,75.92
2023-02-02T23:35:21.563Z,76.09
2023-02-02T23:37:49.533Z,76.06
2023-02-02T23:40:17.653Z,75.93
2023-02-02T23:42:45.611Z,76.10
2023-02-02T23:45:16.414Z,76.09
2023-02-02T23:47:44.974Z,75.84
2023-02-02T23:50:13.689Z,75.66
2023-02-02T23:52:41.819Z,75.77
2023-02-02T23:55:10.843Z,75.60
2023-02-02T23:57:38.961Z,75.78
